createdAt,value
2023-01-10T00:00:11.541Z,2.25
2023-01-10T00:02:13.909Z,1.80
2023-01-10T00:04:16.073Z,2.00
2023-01-10T00:06:18.300Z,2.22
2023-01-10T00:08:20.489Z,2.33
2023-01-10T00:10:22.920Z,2.35
2023-01-10T00:12:43.874Z,1.95
2023-01-10T00:14:46.041Z,2.00
2023-01-10T00:16:48.261Z,1.90
2023-01-10T00:18:50.855Z,2.00
2023-01-10T00:22:55.520Z,1.70
2023-01-10T00:24:57.643Z,1.88
2023-01-10T00:26:59.865Z,1.67
2023-01-10T00:29:02.210Z,1.92
2023-01-10T00:31:08.288Z,1.92
2023-01-10T00:33:17.495Z,1.60
2023-01-10T00:35:20.335Z,1.92
2023-01-10T00:37:22.869Z,1.98
2023-01-10T00:39:27.565Z,1.52
2023-01-10T00:41:49.232Z,1.52
2023-01-10T00:43:57.762Z,2.30
2023-01-10T00:46:00.186Z,1.80
2023-01-10T00:48:02.420Z,1.70
2023-01-10T00:50:08.701Z,1.63
2023-01-10T00:52:11.021Z,1.60
2023-01-10T00:54:13.991Z,1.95
2023-01-10T00:56:17.199Z,1.98
2023-01-10T00:58:19.405Z,2.10
2023-01-10T01:00:21.693Z,1.70
2023-01-10T01:02:24.120Z,1.80
2023-01-10T01:04:26.653Z,1.75
2023-01-10T01:06:28.882Z,1.73
2023-01-10T01:08:31.089Z,1.90
2023-01-10T01:10:33.305Z,1.80
2023-01-10T01:12:35.603Z,1.65
2023-01-10T01:14:37.756Z,1.65
2023-01-10T01:16:39.898Z,1.60
2023-01-10T01:18:42.270Z,1.60
2023-01-10T01:20:45.889Z,1.85
2023-01-10T01:22:48.536Z,1.92
2023-01-10T01:26:53.233Z,1.50
2023-01-10T01:28:55.567Z,1.55
2023-01-10T01:30:57.979Z,1.77
2023-01-10T01:33:00.234Z,1.60
2023-01-10T01:35:02.546Z,1.80
2023-01-10T01:37:04.767Z,1.60
2023-01-10T01:39:07.007Z,1.75
2023-01-10T01:41:29.211Z,1.65
2023-01-10T01:43:34.732Z,1.60
2023-01-10T01:45:38.467Z,1.70
2023-01-10T01:47:45.894Z,1.70
2023-01-10T01:49:48.706Z,1.75
2023-01-10T01:51:52.726Z,2.13
2023-01-10T01:54:00.376Z,1.55
2023-01-10T01:56:04.873Z,1.50
2023-01-10T01:58:10.624Z,1.52
2023-01-10T02:00:13.389Z,1.70
2023-01-10T02:02:18.983Z,1.80
2023-01-10T02:04:22.997Z,1.90
2023-01-10T02:06:25.795Z,1.83
2023-01-10T02:08:27.988Z,1.60
2023-01-10T02:10:30.169Z,2.05
2023-01-10T02:12:33.473Z,1.63
2023-01-10T02:14:37.146Z,1.67
2023-01-10T02:16:39.451Z,1.70
2023-01-10T02:18:42.728Z,1.90
2023-01-10T02:20:51.258Z,1.92
2023-01-10T02:23:12.352Z,1.30
2023-01-10T02:25:32.938Z,1.48
2023-01-10T02:27:38.443Z,1.67
2023-01-10T02:29:51.220Z,1.52
2023-01-10T02:32:12.429Z,1.58
2023-01-10T02:34:21.718Z,1.70
2023-01-10T02:36:32.919Z,1.52
2023-01-10T02:38:40.070Z,1.75
2023-01-10T02:40:52.907Z,1.50
2023-01-10T02:43:00.756Z,1.60
2023-01-10T02:45:10.694Z,1.85
2023-01-10T02:47:14.068Z,1.65
2023-01-10T02:49:16.431Z,1.50
2023-01-10T02:51:20.499Z,1.60
2023-01-10T02:53:32.764Z,1.70
2023-01-10T02:55:43.219Z,1.52
2023-01-10T02:58:11.594Z,1.40
2023-01-10T03:00:16.763Z,1.33
2023-01-10T03:02:37.267Z,1.48
2023-01-10T03:04:50.701Z,1.42
2023-01-10T03:07:11.203Z,1.35
2023-01-10T03:09:13.338Z,1.33
2023-01-10T03:11:15.656Z,1.58
2023-01-10T03:13:23.534Z,1.63
2023-01-10T03:15:27.583Z,1.48
2023-01-10T03:17:30.850Z,1.55
2023-01-10T03:19:35.581Z,1.20
2023-01-10T03:21:38.541Z,1.60
2023-01-10T03:23:41.440Z,1.52
2023-01-10T03:25:44.935Z,1.38
2023-01-10T03:27:47.044Z,1.60
2023-01-10T03:29:49.188Z,1.33
2023-01-10T03:31:53.393Z,1.33
2023-01-10T03:33:55.793Z,1.38
2023-01-10T03:36:07.343Z,1.50
2023-01-10T03:38:27.259Z,1.63
2023-01-10T03:40:29.458Z,1.60
2023-01-10T03:43:03.250Z,1.58
2023-01-10T03:45:13.589Z,1.70
2023-01-10T03:47:34.267Z,1.45
2023-01-10T03:49:40.893Z,1.50
2023-01-10T03:51:43.373Z,1.40
2023-01-10T03:53:45.673Z,1.23
2023-01-10T03:55:47.833Z,1.35
2023-01-10T03:57:50.086Z,1.52
2023-01-10T03:59:53.950Z,1.40
2023-01-10T04:01:56.288Z,1.70
2023-01-10T04:03:58.498Z,1.70
2023-01-10T04:06:00.872Z,1.52
2023-01-10T04:08:03.016Z,1.70
2023-01-10T04:10:06.172Z,1.63
2023-01-10T04:12:08.375Z,1.70
2023-01-10T04:14:10.495Z,2.00
2023-01-10T04:16:12.746Z,1.90
2023-01-10T04:18:15.860Z,1.65
2023-01-10T04:20:18.118Z,1.70
2023-01-10T04:22:20.281Z,1.80
2023-01-10T04:24:22.486Z,1.55
2023-01-10T04:26:24.743Z,1.65
2023-01-10T04:28:26.923Z,1.83
2023-01-10T04:30:29.163Z,1.90
2023-01-10T04:32:31.313Z,1.90
2023-01-10T04:34:33.827Z,1.80
2023-01-10T04:36:36.694Z,1.90
2023-01-10T04:38:38.828Z,2.13
2023-01-10T04:40:40.962Z,1.70
2023-01-10T04:42:43.132Z,1.83
2023-01-10T04:44:45.313Z,2.28
2023-01-10T04:46:47.476Z,1.90
2023-01-10T04:48:49.609Z,1.98
2023-01-10T04:50:52.063Z,2.45
2023-01-10T04:52:54.354Z,2.50
2023-01-10T04:54:57.353Z,2.25
2023-01-10T04:56:59.506Z,2.33
2023-01-10T04:59:01.701Z,2.03
2023-01-10T05:01:14.300Z,2.50
2023-01-10T05:03:20.273Z,2.28
2023-01-10T05:05:22.560Z,2.30
2023-01-10T05:07:24.764Z,2.67
2023-01-10T05:09:26.907Z,2.47
2023-01-10T05:11:29.037Z,2.60
2023-01-10T05:13:31.208Z,2.65
2023-01-10T05:15:33.367Z,2.65
2023-01-10T05:17:35.766Z,2.50
2023-01-10T05:19:38.021Z,2.83
2023-01-10T05:21:40.403Z,2.83
2023-01-10T05:23:42.666Z,2.38
2023-01-10T05:25:45.388Z,2.95
2023-01-10T05:29:49.702Z,2.75
2023-01-10T05:31:52.517Z,2.63
2023-01-10T05:33:54.753Z,2.75
2023-01-10T05:35:56.929Z,2.80
2023-01-10T05:37:59.152Z,2.78
2023-01-10T05:40:01.353Z,2.40
2023-01-10T05:42:05.750Z,2.30
2023-01-10T05:44:08.050Z,2.35
2023-01-10T05:46:10.720Z,2.28
2023-01-10T05:48:13.119Z,2.47
2023-01-10T05:50:15.319Z,2.45
2023-01-10T05:52:17.542Z,2.47
2023-01-10T05:54:19.736Z,2.83
2023-01-10T05:56:21.924Z,2.35
2023-01-10T05:58:24.838Z,2.55
2023-01-10T06:00:27.359Z,2.58
2023-01-10T06:02:29.645Z,2.90
2023-01-10T06:04:31.846Z,3.13
2023-01-10T06:06:34.465Z,2.17
2023-01-10T06:10:41.350Z,2.28
2023-01-10T06:12:44.316Z,2.22
2023-01-10T06:14:46.756Z,2.10
2023-01-10T06:16:48.921Z,2.22
2023-01-10T06:18:51.225Z,2.30
2023-01-10T06:20:53.421Z,2.00
2023-01-10T06:22:55.832Z,2.13
2023-01-10T06:24:58.014Z,2.25
2023-01-10T06:27:00.271Z,1.83
2023-01-10T06:29:02.448Z,2.03
2023-01-10T06:31:04.693Z,2.03
2023-01-10T06:33:07.673Z,1.80
2023-01-10T06:35:10.338Z,2.25
2023-01-10T06:39:15.850Z,2.13
2023-01-10T06:41:18.008Z,2.20
2023-01-10T06:43:20.134Z,2.25
2023-01-10T06:45:22.330Z,2.00
2023-01-10T06:47:24.465Z,2.13
2023-01-10T06:49:26.599Z,2.08
2023-01-10T06:51:28.828Z,2.05
2023-01-10T06:53:31.341Z,2.05
2023-01-10T06:55:33.489Z,2.05
2023-01-10T06:57:35.740Z,2.00
2023-01-10T06:59:37.946Z,2.35
2023-01-10T07:01:40.230Z,1.80
2023-01-10T07:03:42.666Z,2.00
2023-01-10T07:05:44.953Z,2.03
2023-01-10T07:07:47.190Z,2.38
2023-01-10T07:09:49.360Z,2.03
2023-01-10T07:11:51.520Z,2.15
2023-01-10T07:13:54.043Z,2.20
2023-01-10T07:16:12.873Z,2.10
2023-01-10T07:18:15.124Z,1.98
2023-01-10T07:20:17.527Z,1.90
2023-01-10T07:22:19.734Z,2.58
2023-01-10T07:24:21.866Z,1.88
2023-01-10T07:26:24.347Z,2.28
2023-01-10T07:28:26.546Z,2.30
2023-01-10T07:30:28.741Z,2.25
2023-01-10T07:32:30.977Z,2.35
2023-01-10T07:34:33.103Z,2.13
2023-01-10T07:36:39.214Z,2.45
2023-01-10T07:38:41.567Z,2.53
2023-01-10T07:40:44.349Z,2.65
2023-01-10T07:42:46.542Z,2.28
2023-01-10T07:44:49.565Z,2.08
2023-01-10T07:46:51.857Z,2.60
2023-01-10T07:48:54.064Z,2.40
2023-01-10T07:50:57.528Z,3.20
2023-01-10T07:53:00.569Z,3.05
2023-01-10T07:55:02.716Z,3.10
2023-01-10T07:57:04.894Z,2.55
2023-01-10T07:59:07.219Z,4.20
2023-01-10T08:01:09.462Z,4.22
2023-01-10T08:03:11.739Z,4.13
2023-01-10T08:05:14.514Z,3.72
2023-01-10T08:09:18.883Z,3.50
2023-01-10T08:11:21.173Z,3.60
2023-01-10T08:13:23.778Z,4.03
2023-01-10T08:17:28.141Z,3.83
2023-01-10T08:19:30.283Z,3.95
2023-01-10T08:21:32.855Z,4.18
2023-01-10T08:25:39.366Z,3.33
2023-01-10T08:27:41.754Z,3.40
2023-01-10T08:29:43.964Z,3.28
2023-01-10T08:31:46.219Z,3.67
2023-01-10T08:33:48.354Z,2.70
2023-01-10T08:35:51.012Z,3.15
2023-01-10T08:39:55.444Z,3.33
2023-01-10T08:41:57.866Z,3.08
2023-01-10T08:44:00.781Z,3.35
2023-01-10T08:46:02.955Z,3.53
2023-01-10T08:48:06.067Z,3.75
2023-01-10T08:50:08.515Z,3.75
2023-01-10T08:52:11.738Z,4.22
2023-01-10T08:54:13.868Z,3.65
2023-01-10T08:56:16.112Z,3.33
2023-01-10T08:58:18.225Z,3.40
2023-01-10T09:00:20.559Z,4.05
2023-01-10T09:02:22.794Z,4.18
2023-01-10T09:04:26.275Z,5.43
2023-01-10T09:06:28.422Z,3.88
2023-01-10T09:08:30.626Z,3.30
2023-01-10T09:10:32.872Z,2.85
2023-01-10T09:12:53.560Z,2.40
2023-01-10T09:14:55.781Z,2.10
2023-01-10T09:16:57.917Z,2.70
2023-01-10T09:19:00.055Z,2.53
2023-01-10T09:21:03.352Z,2.15
2023-01-10T09:23:20.155Z,2.25
2023-01-10T09:25:22.347Z,2.30
2023-01-10T09:27:24.507Z,2.33
2023-01-10T09:29:26.644Z,2.80
2023-01-10T09:31:28.906Z,2.67
2023-01-10T09:33:45.292Z,2.67
2023-01-10T09:35:48.898Z,2.50
2023-01-10T09:37:51.261Z,2.40
2023-01-10T09:39:53.380Z,2.45
2023-01-10T09:42:06.033Z,2.63
2023-01-10T09:44:18.735Z,2.72
2023-01-10T09:46:29.939Z,2.75
2023-01-10T09:48:37.920Z,3.30
2023-01-10T09:50:55.998Z,3.28
2023-01-10T09:53:03.319Z,3.65
2023-01-10T09:55:18.680Z,4.10
2023-01-10T09:57:22.047Z,3.47
2023-01-10T09:59:25.617Z,3.70
2023-01-10T10:01:30.085Z,3.47
2023-01-10T10:03:39.092Z,3.67
2023-01-10T10:05:43.565Z,3.35
2023-01-10T10:09:47.930Z,3.05
2023-01-10T10:12:10.317Z,3.05
2023-01-10T10:14:12.476Z,2.95
2023-01-10T10:16:20.171Z,2.95
2023-01-10T10:18:45.991Z,3.00
2023-01-10T10:20:54.735Z,2.75
2023-01-10T10:23:06.124Z,3.25
2023-01-10T10:25:27.136Z,2.88
2023-01-10T10:27:41.190Z,2.38
2023-01-10T10:29:43.463Z,3.10
2023-01-10T10:31:48.418Z,3.78
2023-01-10T10:34:05.950Z,3.60
2023-01-10T10:36:19.022Z,2.63
2023-01-10T10:38:21.213Z,2.45
2023-01-10T10:40:29.634Z,2.10
2023-01-10T10:42:37.016Z,1.63
2023-01-10T10:44:59.897Z,2.08
2023-01-10T10:47:02.112Z,2.05
2023-01-10T10:49:22.996Z,1.88
2023-01-10T10:51:29.997Z,1.33
2023-01-10T10:53:33.239Z,1.70
2023-01-10T10:55:36.482Z,1.40
2023-01-10T10:57:43.442Z,1.67
2023-01-10T10:59:53.990Z,1.65
2023-01-10T11:01:56.308Z,1.75
2023-01-10T11:04:02.789Z,1.52
2023-01-10T11:06:06.593Z,1.50
2023-01-10T11:08:14.968Z,1.70
2023-01-10T11:10:21.996Z,1.63
2023-01-10T11:12:27.687Z,1.77
2023-01-10T11:14:42.211Z,1.48
2023-01-10T11:16:45.261Z,1.70
2023-01-10T11:19:03.612Z,1.70
2023-01-10T11:21:09.294Z,1.90
2023-01-10T11:23:11.481Z,1.50
2023-01-10T11:25:15.859Z,1.45
2023-01-10T11:27:19.315Z,1.92
2023-01-10T11:29:38.812Z,1.67
2023-01-10T11:31:41.948Z,1.80
2023-01-10T11:33:44.143Z,1.65
2023-01-10T11:35:57.137Z,1.73
2023-01-10T11:38:07.225Z,1.30
2023-01-10T11:40:15.563Z,1.45
2023-01-10T11:42:29.686Z,1.67
2023-01-10T11:44:31.892Z,1.73
2023-01-10T11:46:34.658Z,1.70
2023-01-10T11:49:04.821Z,1.70
2023-01-10T11:51:16.238Z,1.55
2023-01-10T11:53:31.691Z,1.98
2023-01-10T11:55:34.965Z,1.67
2023-01-10T11:57:37.588Z,1.60
2023-01-10T12:01:44.339Z,1.83
2023-01-10T12:03:47.218Z,2.08
2023-01-10T12:05:50.989Z,2.53
2023-01-10T12:08:10.564Z,2.28
2023-01-10T12:10:21.109Z,1.83
2023-01-10T12:12:25.470Z,1.75
2023-01-10T12:14:28.483Z,2.58
2023-01-10T12:16:35.285Z,1.98
2023-01-10T12:18:37.538Z,1.90
2023-01-10T12:20:46.322Z,2.38
2023-01-10T12:22:50.811Z,2.10
2023-01-10T12:24:53.966Z,1.70
2023-01-10T12:26:57.203Z,1.85
2023-01-10T12:29:02.517Z,2.10
2023-01-10T12:31:05.554Z,3.03
2023-01-10T12:33:12.217Z,2.90
2023-01-10T12:35:19.344Z,1.98
2023-01-10T12:37:35.647Z,1.77
2023-01-10T12:39:41.337Z,1.70
2023-01-10T12:42:02.322Z,1.70
2023-01-10T12:44:12.098Z,1.70
2023-01-10T12:46:28.091Z,2.17
2023-01-10T12:48:35.948Z,1.73
2023-01-10T12:50:42.105Z,1.27
2023-01-10T12:52:55.080Z,1.70
2023-01-10T12:57:00.225Z,1.50
2023-01-10T12:59:11.967Z,1.95
2023-01-10T13:01:28.052Z,1.58
2023-01-10T13:03:33.336Z,1.63
2023-01-10T13:05:35.744Z,1.70
2023-01-10T13:07:38.029Z,1.85
2023-01-10T13:09:42.420Z,1.20
2023-01-10T13:11:58.246Z,2.00
2023-01-10T13:14:01.779Z,1.75
2023-01-10T13:16:22.038Z,1.90
2023-01-10T13:18:26.386Z,1.88
2023-01-10T13:20:30.033Z,1.45
2023-01-10T13:22:37.302Z,1.70
2023-01-10T13:24:39.734Z,2.28
2023-01-10T13:26:58.458Z,2.00
2023-01-10T13:29:01.458Z,3.83
2023-01-10T13:31:05.815Z,2.33
2023-01-10T13:33:21.263Z,2.53
2023-01-10T13:35:25.645Z,2.17
2023-01-10T13:37:38.539Z,1.73
2023-01-10T13:42:24.375Z,1.70
2023-01-10T13:46:28.815Z,1.70
2023-01-10T13:48:31.041Z,1.60
2023-01-10T13:50:42.172Z,1.75
2023-01-10T13:52:44.374Z,1.60
2023-01-10T13:55:03.847Z,1.77
2023-01-10T13:57:28.029Z,1.95
2023-01-10T13:59:49.661Z,1.63
2023-01-10T14:02:12.228Z,1.92
2023-01-10T14:04:34.973Z,2.03
2023-01-10T14:06:41.612Z,1.75
2023-01-10T14:08:54.178Z,2.05
2023-01-10T14:11:09.621Z,1.63
2023-01-10T14:13:19.342Z,1.67
2023-01-10T14:15:21.505Z,1.85
2023-01-10T14:17:23.846Z,1.85
2023-01-10T14:19:30.392Z,1.40
2023-01-10T14:21:36.414Z,2.08
2023-01-10T14:23:41.092Z,1.95
2023-01-10T14:25:43.576Z,2.10
2023-01-10T14:27:47.081Z,2.33
2023-01-10T14:29:54.895Z,1.85
2023-01-10T14:31:57.222Z,1.92
2023-01-10T14:34:00.517Z,1.90
2023-01-10T14:36:05.316Z,2.03
2023-01-10T14:38:08.713Z,1.85
2023-01-10T14:40:29.194Z,1.90
2023-01-10T14:42:31.529Z,1.70
2023-01-10T14:44:38.037Z,1.45
2023-01-10T14:46:51.396Z,1.95
2023-01-10T14:48:55.161Z,1.92
2023-01-10T14:51:11.132Z,2.20
2023-01-10T14:53:31.649Z,2.10
2023-01-10T14:55:33.810Z,1.95
2023-01-10T14:57:36.045Z,1.60
2023-01-10T14:59:38.719Z,1.85
2023-01-10T15:03:47.376Z,1.50
2023-01-10T15:05:51.030Z,1.42
2023-01-10T15:07:57.226Z,1.48
2023-01-10T15:10:02.678Z,1.98
2023-01-10T15:12:07.940Z,1.63
2023-01-10T15:14:11.078Z,1.58
2023-01-10T15:16:18.367Z,1.70
2023-01-10T15:18:20.530Z,1.77
2023-01-10T15:20:23.138Z,2.50
2023-01-10T15:22:32.634Z,1.83
2023-01-10T15:24:36.146Z,3.03
2023-01-10T15:26:38.327Z,3.22
2023-01-10T15:28:41.048Z,2.13
2023-01-10T15:30:43.580Z,2.22
2023-01-10T15:32:45.774Z,1.75
2023-01-10T15:34:52.442Z,1.77
2023-01-10T15:36:55.964Z,1.65
2023-01-10T15:38:58.190Z,1.60
2023-01-10T15:41:04.151Z,1.67
2023-01-10T15:43:18.233Z,1.50
2023-01-10T15:45:29.201Z,1.80
2023-01-10T15:47:40.001Z,1.95
2023-01-10T15:49:52.945Z,2.08
2023-01-10T15:54:03.774Z,1.67
2023-01-10T15:56:11.859Z,1.67
2023-01-10T15:58:23.759Z,1.90
2023-01-10T16:00:25.958Z,1.92
2023-01-10T16:02:34.288Z,2.20
2023-01-10T16:04:36.994Z,1.75
2023-01-10T16:08:41.348Z,2.13
2023-01-10T16:10:43.790Z,2.13
2023-01-10T16:13:04.708Z,1.90
2023-01-10T16:15:14.941Z,1.90
2023-01-10T16:17:17.258Z,1.95
2023-01-10T16:19:19.416Z,2.10
2023-01-10T16:21:22.055Z,1.98
2023-01-10T16:25:34.491Z,2.13
2023-01-10T16:27:36.678Z,2.28
2023-01-10T16:29:38.822Z,1.90
2023-01-10T16:31:41.274Z,2.33
2023-01-10T16:33:45.374Z,2.05
2023-01-10T16:35:48.284Z,1.92
2023-01-10T16:37:53.878Z,2.08
2023-01-10T16:39:57.027Z,2.13
2023-01-10T16:42:17.736Z,2.25
2023-01-10T16:44:19.920Z,2.72
2023-01-10T16:46:22.183Z,2.33
2023-01-10T16:48:24.378Z,2.45
2023-01-10T16:50:26.581Z,2.47
2023-01-10T16:52:28.734Z,3.00
2023-01-10T16:54:31.217Z,2.72
2023-01-10T16:56:33.407Z,3.10
2023-01-10T16:58:35.581Z,3.55
2023-01-10T17:00:38.501Z,3.90
2023-01-10T17:02:41.531Z,3.85
2023-01-10T17:04:43.747Z,3.30
2023-01-10T17:06:45.907Z,4.72
2023-01-10T17:08:49.592Z,4.93
2023-01-10T17:10:53.182Z,3.95
2023-01-10T17:12:55.429Z,4.28
2023-01-10T17:14:57.729Z,4.07
2023-01-10T17:16:59.933Z,4.03
2023-01-10T17:19:02.130Z,3.90
2023-01-10T17:21:04.367Z,3.97
2023-01-10T17:23:06.550Z,3.67
2023-01-10T17:25:12.830Z,4.40
2023-01-10T17:27:15.074Z,4.07
2023-01-10T17:29:17.200Z,4.63
2023-01-10T17:31:20.386Z,4.40
2023-01-10T17:33:22.802Z,5.40
2023-01-10T17:35:28.286Z,4.15
2023-01-10T17:37:30.547Z,3.92
2023-01-10T17:39:32.808Z,3.85
2023-01-10T17:41:35.186Z,3.72
2023-01-10T17:43:38.940Z,3.88
2023-01-10T17:45:41.559Z,3.97
2023-01-10T17:49:46.001Z,3.22
2023-01-10T17:51:48.249Z,3.85
2023-01-10T17:53:50.428Z,3.83
2023-01-10T17:55:54.367Z,4.00
2023-01-10T17:57:57.019Z,3.30
2023-01-10T18:02:01.558Z,3.42
2023-01-10T18:06:12.515Z,3.45
2023-01-10T18:08:14.774Z,4.93
2023-01-10T18:10:17.011Z,5.03
2023-01-10T18:12:19.201Z,5.60
2023-01-10T18:14:36.481Z,6.00
2023-01-10T18:16:38.671Z,6.30
2023-01-10T18:18:40.818Z,6.20
2023-01-10T18:20:43.967Z,5.65
2023-01-10T18:23:05.202Z,5.10
2023-01-10T18:25:07.562Z,5.32
2023-01-10T18:27:09.684Z,6.30
2023-01-10T18:29:11.854Z,7.82
2023-01-10T18:31:17.952Z,7.60
2023-01-10T18:33:21.065Z,8.05
2023-01-10T18:35:23.280Z,7.82
2023-01-10T18:37:25.503Z,7.20
2023-01-10T18:39:27.734Z,6.82
2023-01-10T18:41:30.362Z,6.55
2023-01-10T18:45:35.121Z,6.22
2023-01-10T18:47:37.344Z,6.13
2023-01-10T18:49:39.513Z,5.72
2023-01-10T18:51:41.655Z,4.75
2023-01-10T18:53:44.055Z,4.90
2023-01-10T18:55:56.379Z,5.28
2023-01-10T18:57:58.651Z,5.05
2023-01-10T19:00:00.814Z,5.05
2023-01-10T19:02:02.978Z,5.13
2023-01-10T19:04:05.302Z,5.22
2023-01-10T19:06:10.504Z,5.47
2023-01-10T19:08:15.816Z,5.00
2023-01-10T19:10:19.036Z,4.97
2023-01-10T19:12:21.162Z,4.30
2023-01-10T19:14:23.411Z,4.50
2023-01-10T19:16:27.102Z,4.70
2023-01-10T19:18:29.255Z,4.40
2023-01-10T19:20:31.442Z,4.78
2023-01-10T19:22:33.576Z,4.88
2023-01-10T19:24:37.733Z,4.00
2023-01-10T19:26:39.886Z,4.80
2023-01-10T19:28:42.644Z,3.65
2023-01-10T19:30:47.064Z,4.68
2023-01-10T19:32:51.538Z,4.60
2023-01-10T19:34:53.694Z,4.40
2023-01-10T19:36:55.899Z,4.55
2023-01-10T19:38:59.327Z,4.47
2023-01-10T19:41:01.603Z,4.47
2023-01-10T19:43:03.838Z,4.78
2023-01-10T19:45:06.812Z,4.78
2023-01-10T19:47:09.112Z,5.47
2023-01-10T19:49:14.070Z,5.05
2023-01-10T19:51:16.476Z,5.15
2023-01-10T19:53:23.742Z,5.00
2023-01-10T19:55:26.053Z,4.88
2023-01-10T19:57:28.263Z,5.60
2023-01-10T19:59:32.644Z,5.03
2023-01-10T20:01:35.302Z,4.97
2023-01-10T20:03:38.770Z,4.40
2023-01-10T20:05:41.195Z,4.85
2023-01-10T20:07:43.358Z,4.00
2023-01-10T20:09:45.525Z,3.85
2023-01-10T20:11:47.734Z,4.35
2023-01-10T20:13:50.247Z,4.13
2023-01-10T20:17:54.733Z,3.70
2023-01-10T20:19:58.001Z,4.13
2023-01-10T20:22:00.211Z,4.07
2023-01-10T20:24:02.351Z,4.13
2023-01-10T20:26:06.265Z,4.00
2023-01-10T20:28:08.401Z,3.72
2023-01-10T20:30:14.084Z,3.53
2023-01-10T20:32:16.311Z,3.55
2023-01-10T20:34:18.498Z,3.60
2023-01-10T20:36:22.071Z,4.00
2023-01-10T20:38:24.649Z,4.15
2023-01-10T20:42:29.150Z,4.20
2023-01-10T20:44:31.933Z,3.95
2023-01-10T20:46:34.328Z,4.07
2023-01-10T20:48:36.590Z,4.05
2023-01-10T20:50:41.623Z,3.55
2023-01-10T20:52:44.760Z,3.67
2023-01-10T20:54:46.911Z,4.10
2023-01-10T20:56:49.147Z,4.03
2023-01-10T20:58:51.539Z,3.78
2023-01-10T21:00:54.382Z,3.65
2023-01-10T21:02:56.518Z,3.85
2023-01-10T21:04:58.787Z,3.50
2023-01-10T21:07:01.324Z,3.40
2023-01-10T21:11:06.599Z,3.58
2023-01-10T21:13:08.769Z,2.78
2023-01-10T21:15:11.641Z,3.20
2023-01-10T21:17:13.859Z,2.83
2023-01-10T21:19:16.725Z,3.03
2023-01-10T21:21:19.919Z,2.95
2023-01-10T21:23:23.011Z,3.28
2023-01-10T21:25:25.458Z,3.15
2023-01-10T21:27:31.316Z,3.13
2023-01-10T21:29:33.451Z,2.97
2023-01-10T21:31:35.650Z,2.90
2023-01-10T21:33:38.124Z,2.90
2023-01-10T21:35:40.627Z,3.30
2023-01-10T21:39:44.831Z,3.15
2023-01-10T21:42:22.633Z,3.63
2023-01-10T21:44:26.217Z,3.20
2023-01-10T21:46:28.478Z,3.08
2023-01-10T21:48:31.137Z,2.70
2023-01-10T21:50:33.791Z,2.67
2023-01-10T21:52:36.023Z,3.25
2023-01-10T21:54:38.207Z,3.28
2023-01-10T21:56:40.334Z,3.08
2023-01-10T21:58:42.650Z,2.47
2023-01-10T22:00:44.881Z,2.78
2023-01-10T22:02:47.765Z,2.88
2023-01-10T22:04:51.159Z,2.97
2023-01-10T22:06:53.490Z,2.85
2023-01-10T22:08:55.678Z,2.80
2023-01-10T22:10:57.868Z,3.22
2023-01-10T22:13:00.025Z,3.53
2023-01-10T22:15:02.190Z,3.10
2023-01-10T22:17:04.789Z,2.95
2023-01-10T22:21:09.074Z,3.17
2023-01-10T22:23:11.218Z,2.92
2023-01-10T22:25:13.375Z,2.40
2023-01-10T22:27:16.102Z,2.63
2023-01-10T22:29:20.408Z,2.45
2023-01-10T22:31:22.616Z,2.70
2023-01-10T22:33:25.160Z,2.90
2023-01-10T22:37:29.464Z,2.60
2023-01-10T22:39:31.600Z,2.80
2023-01-10T22:41:33.953Z,2.38
2023-01-10T22:43:36.241Z,2.50
2023-01-10T22:45:42.022Z,2.50
2023-01-10T22:47:44.304Z,2.55
2023-01-10T22:49:46.481Z,2.65
2023-01-10T22:51:48.772Z,2.53
2023-01-10T22:53:52.153Z,2.38
2023-01-10T22:56:00.218Z,2.47
2023-01-10T22:58:02.416Z,2.40
2023-01-10T23:00:07.028Z,2.20
2023-01-10T23:02:09.226Z,2.45
2023-01-10T23:04:11.522Z,2.33
2023-01-10T23:06:14.221Z,2.75
2023-01-10T23:08:16.426Z,2.53
2023-01-10T23:10:29.676Z,2.78
2023-01-10T23:12:33.003Z,2.38
2023-01-10T23:14:36.507Z,2.90
2023-01-10T23:16:38.755Z,2.20
2023-01-10T23:18:41.284Z,2.55
2023-01-10T23:22:45.631Z,1.98
2023-01-10T23:24:47.760Z,2.30
2023-01-10T23:26:50.731Z,2.53
2023-01-10T23:28:53.010Z,2.22
2023-01-10T23:30:55.158Z,2.35
2023-01-10T23:32:57.358Z,2.78
2023-01-10T23:34:59.504Z,2.30
2023-01-10T23:37:02.165Z,2.50
2023-01-10T23:39:04.387Z,1.95
2023-01-10T23:41:06.589Z,2.08
2023-01-10T23:43:08.757Z,2.40
2023-01-10T23:45:11.043Z,1.98
2023-01-10T23:47:13.208Z,2.10
2023-01-10T23:49:15.494Z,1.73
2023-01-10T23:51:17.662Z,1.80
2023-01-10T23:53:20.141Z,1.90
2023-01-10T23:55:22.305Z,2.00
2023-01-10T23:57:24.498Z,1.95
2023-01-10T23:59:27.096Z,2.28
